To NAV CANADA Home Page Login to a new session Search on AWWS site Feedback and Comments Disclaimer Vers la page française équivalente Tips FAQ What's new on the site To the Forecasts and Observations / NOTAM section To "File a Flight Plan" website Publications and other links Update of the User's profile FIC Telephone Numbers My Weather Data Folder Route Weather Data Regional Weather Data Local Weather Data To the Forecasts and Observations / NOTAM section
Request Generated 03/23/2017 at 00:12:37 UTC . Weather information available at that time is displayed.

METAR/TAF

MAYO/YT    

METAR CYMA 230000Z 03008KT 010V070 20SM DRSN SCT062 BKN080 OVC250
M02/M13 A2965 RMK SC3AS2CS3 CLIMAT -2.0/-6.8/0.0 SOG 42 SLP080=
METAR CYMA 222300Z 34009G15KT 20SM DRSN FEW064 SCT080 OVC250 M02/M14
A2966 RMK SC2AS2CS4 HALO SLP083=
METAR CYMA 222200Z 02007KT 330V050 20SM FEW050 OVC077 M03/M14 A2969
RMK SC2AS6 SLP091=

TAF CYMA 222341Z 2300/2312 01010KT P6SM FEW060 SCT080 TEMPO 2300/2304
P6SM -SN SCT050 BKN080
FM230400 01008KT P6SM SCT040 BKN060 TEMPO 2304/2312 4SM -SN
FEW020 OVC040
RMK NXT FCST BY 230600Z=
Your time UTC time
Weather data provided by Environment Canada and NAV CANADA